Friedrich Kuhn

Recruteur - SC Freiburg
4 Avr 2027
Dimanche
Processus

Personnalité

Adaptabilité (7) Ambition (10) Controverse (10) Loyauté (16) Pression (8) Professionnalisme (13) Sportivité (17) Tempérament (8)

Profil

Style d'entraînement Démocratique
Diplôme Continental A
Détermination 11
Gestion des joueurs 11
Motivation 14
Discipline 12
Satisfaction professionnelle
62%
Fatigue
0%
Rôle Recruteur
Salaire 75.4K p/s
Contrat 14.03.2028

Performance

Comportement Bon
Efficacité de l'entraînement
32%
Développement des joueurs
40%
Prévention des blessures
30%
Mise en place tactique
55%

Événements récents

A participé à une réunion de recrutement 7j
A participé à une réunion de recrutement 7j
A participé à une réunion de recrutement 14j
A participé à une réunion de recrutement 14j
A participé à une réunion de recrutement 21j
A participé à une réunion de recrutement 21j
Anniversaire 21j
A participé à une réunion de recrutement 28j

Suivi en cours

135
Joueur Club Statut Capacité Confiance Observé Dernière observation Dernier vote
Mika Mármol Feyenoord Actif 133 / 131 40% 1 13.01.2027 -
Gabriel Sara Galatasaray Actif 139 / 136 40% 1 13.01.2027 -
Ngal'Ayel Mukau LOSC Lille Actif 142 / 148 40% 1 13.01.2027 -
Josh Coburn Millwall Actif 118 / 111 40% 4 31.12.2026 -
Sorriso Famalicao Actif 132 / 118 40% 5 31.12.2026 -
Brayan Gil Baltika Actif 126 / 137 40% 1 31.12.2026 -
Marco Pineda VfB Stuttgart Actif 144 / 151 40% 4 30.12.2026 -
Mateo Cassierra Atlético Mineiro Actif 132 / 141 40% 3 30.12.2026 -
Mehdi Ghayedi Al Nasr Actif 125 / 111 40% 3 30.12.2026 -
Radek Vítek Middlesbrough Actif 140 / 138 40% 4 29.12.2026 -
Igor Nikić Mirandés Actif 123 / 127 40% 2 29.12.2026 -
Iñaki Peña Panathinaikos Actif 150 / 158 40% 1 29.12.2026 -
Leandro Trossard Besiktas Actif 156 / 165 40% 6 27.12.2026 -
Nicolò Tresoldi Club Brugge Actif 135 / 145 40% 6 27.12.2026 -
Fashion Sakala Al-Fayha Actif 129 / 107 40% 3 27.12.2026 -
Jakub Stolarczyk Leicester City Actif 139 / 126 40% 3 26.12.2026 -
Memphis Depay Corinthians Actif 155 / 163 40% 5 26.12.2026 -
Pascal Loretz Luzern Actif 125 / 128 40% 3 26.12.2026 -
George Wickens Lincoln City Actif 110 / 127 40% 2 26.12.2026 -
Florián Monzón Atlas Actif 118 / 115 40% 3 25.12.2026 -
Josias Lukembila Sion Actif 116 / 129 40% 4 25.12.2026 -
Will Lankshear Middlesbrough Actif 124 / 119 40% 1 25.12.2026 -
Michy Fellaini KV Oostende Actif 135 / 133 40% 4 23.12.2026 -
Moussa Dembélé Al-Ettifaq Actif 125 / 149 40% 2 23.12.2026 -
Cesar Corona Veracruz Actif 141 / 136 40% 9 22.12.2026 -
Nicolás Ibáñez Cruz Azul Actif 140 / 123 40% 5 22.12.2026 -
Mathias Pereira Lage St. Pauli Actif 138 / 124 40% 2 22.12.2026 -
Carlos Vinícius Grêmio Actif 142 / 154 40% 3 21.12.2026 -
Achraf Bencharki Al Ahly Actif 131 / 121 40% 4 21.12.2026 -
Juan Carlos Arana Racing Santander Actif 126 / 135 40% 3 20.12.2026 -
Gonzalo Plata Dinamo Moscow Actif 129 / 136 40% 2 20.12.2026 -
Soufiane Rahimi Al Ain Actif 130 / 144 40% 1 18.12.2026 -
José Arnáiz Granada Actif 133 / 132 40% 3 16.12.2026 -
Nicolás Fernández Belgrano Actif 134 / 106 40% 1 16.12.2026 -
Luciano Gondou CSKA Moscow Actif 139 / 145 40% 1 15.12.2026 -
Alexis Vega Toluca Actif 154 / 136 40% 7 12.12.2026 -
Munir Albacete Actif 125 / 122 40% 4 12.12.2026 -
Adriano Bertaccini Anderlecht Actif 130 / 113 40% 1 11.12.2026 -
Martijn Kaars St. Pauli Actif 124 / 110 40% 1 11.12.2026 -
Chupete Málaga Actif 122 / 142 40% 1 11.12.2026 -
Mads Hedenstad AGF Actif 120 / 130 40% 1 11.12.2026 -
Carl Rushworth Coventry City Actif 141 / 133 40% 2 09.12.2026 -
Elia Caprile Cagliari Actif 139 / 155 40% 1 09.12.2026 -
Sem Westerveld Zaragoza Actif 118 / 107 40% 1 09.12.2026 -
Pedro Flamengo Actif 140 / 124 40% 2 08.12.2026 -
Rey Manaj Sivasspor Actif 124 / 136 40% 1 08.12.2026 -
Hany Mukhtar Hamburger SV Actif 133 / 126 40% 1 08.12.2026 -
Paulinho Palmeiras Actif 151 / 156 40% 4 03.12.2026 -
Ferran Jutglà Celta Actif 136 / 135 40% 1 03.12.2026 -
Jason Januzaj Mouscron Actif 151 / 138 40% 4 01.12.2026 -
Maurits Kjærgaard Red Bull Salzburg Actif 134 / 142 40% 6 30.11.2026 -
Duk Atlas Actif 116 / 127 40% 1 30.11.2026 -
Chris Brady Chicago Fire Actif 122 / 127 40% 2 29.11.2026 -
Justin Hammel Grasshopper Actif 124 / 110 40% 3 29.11.2026 -
Gabriel Brazão Santos Actif 129 / 119 40% 1 29.11.2026 -
Yorbe Vertessen Red Bull Salzburg Actif 131 / 115 40% 5 27.11.2026 -
Musa Barrow Al-Khaleej Actif 133 / 143 40% 4 23.11.2026 -
Andrin Hunziker St. Gallen Actif 113 / 121 40% 4 22.11.2026 -
Sinan Karweina Luzern Actif 113 / 105 40% 4 22.11.2026 -
Guilherme Fernandes Córdoba Actif 135 / 125 40% 1 22.11.2026 -
Grégoire Coudert Burnley Actif 127 / 128 40% 1 22.11.2026 -
Robin Risser RC Lens Actif 139 / 148 40% 1 21.11.2026 -
Jean-Luc Morin Tours Perdu 138 / 146 40% 7 19.11.2026 Observer
Jorge Pascual Granada Actif 130 / 144 40% 5 19.11.2026 Observer
Exequiel Zeballos Boca Juniors Actif 138 / 140 40% 6 18.11.2026 -
James Trafford Leeds United Actif 142 / 135 40% 1 18.11.2026 -
Christian Früchtl Red Bull Salzburg Actif 112 / 112 40% 1 18.11.2026 -
Talisca Fenerbahce Perdu 149 / 130 40% 4 17.11.2026 -
Rilind Nivokazi Sion Actif 113 / 108 40% 2 15.11.2026 -
Dejan Djokic Vaduz Actif 96 / 109 40% 4 15.11.2026 -
Ousmane Camara Castellón Actif 124 / 117 40% 1 15.11.2026 -
Alan Velasco Boca Juniors Actif 130 / 119 40% 7 10.11.2026 -
Juan-José Perea Zurich Actif 123 / 128 40% 1 09.11.2026 -
Matteo di Giusto Luzern Actif 126 / 128 40% 2 08.11.2026 -
Urko Izeta Cádiz Actif 129 / 132 40% 3 08.11.2026 -
Mousa Meunier KV Oostende Actif 130 / 125 40% 1 08.11.2026 -
Luca Orellano Monterrey Actif 137 / 127 40% 3 07.11.2026 -
Tom Cannon Sheffield United Actif 128 / 137 40% 1 07.11.2026 -
Richard Koné Queens Park Rangers Actif 118 / 115 40% 1 05.11.2026 -
Efraín Álvarez Guadalajara Actif 133 / 130 40% 3 02.11.2026 -
Lukas Gütlbauer Wolfsberger AC Actif 111 / 113 40% 1 01.11.2026 -
Bertrand Traoré Sunderland Actif 136 / 137 40% 1 30.10.2026 -
José Manuel López Palmeiras Actif 140 / 145 40% 1 24.10.2026 -
Robin Roefs Sunderland Actif 139 / 153 40% 1 24.10.2026 -
Mauro Silveira Junior Actif 125 / 126 40% 1 24.10.2026 -
Marvin Keller Young Boys Actif 133 / 147 40% 1 24.10.2026 -
Anthony Patterson Wrexham Actif 133 / 122 40% 2 23.10.2026 -
Jamie Cumming Oxford United Actif 117 / 110 40% 2 23.10.2026 -
Jon Bautista Eibar Actif 124 / 136 40% 2 21.10.2026 -
Kévin Denkey FC Cincinnati Actif 128 / 110 40% 2 18.10.2026 -
Talles Magno New York City Actif 122 / 117 40% 4 16.10.2026 -
Yuma Suzuki Kashima Antlers Actif 136 / 134 40% 2 16.10.2026 -
Diego López Valencia Actif 142 / 147 40% 1 15.10.2026 -
Leo Ceara Kashima Antlers Actif 140 / 156 40% 2 10.10.2026 -
Dániel Gazdag Columbus Crew Actif 125 / 147 40% 2 10.10.2026 -
Luis Vázquez Birmingham Actif 134 / 121 40% 1 10.10.2026 -
Niklas Steffen Thun Actif 123 / 110 40% 2 07.10.2026 -
Nicolás Sumavil Platense Actif 118 / 117 40% 2 07.10.2026 -
Michael Cooper Sheffield United Actif 123 / 128 40% 1 07.10.2026 -
Sam Surridge Nashville SC Actif 139 / 135 40% 2 06.10.2026 -
Manfred Ugalde Spartak Moscow Actif 137 / 136 40% 2 03.10.2026 -
Ángel Correa River Plate Actif 134 / 158 40% 2 01.10.2026 -
Oli McBurnie Hull City Actif 129 / 133 40% 4 30.09.2026 -
Kostantis Tzolakis Hull City Actif 135 / 147 40% 1 28.09.2026 -
Diego Conde Villarreal Actif 131 / 126 40% 1 28.09.2026 -
Anthony Racioppi Sion Actif 119 / 111 40% 1 27.09.2026 -
Sebastián Villa Boca Juniors Actif 120 / 144 40% 1 24.09.2026 -
Luiz Júnior Villarreal Actif 142 / 149 40% 3 19.09.2026 -
Patrick Schulte Columbus Crew Actif 128 / 138 40% 1 19.09.2026 -
Karl Hein Werder Bremen Actif 128 / 147 40% 1 19.09.2026 -
Tim Kleindienst Borussia Mönchengladbach Actif 149 / 151 40% 3 17.09.2026 -
Diber Cambindo Leon Actif 120 / 146 40% 1 17.09.2026 -
Toni Martínez Alavés Actif 133 / 127 40% 1 16.09.2026 -
Ignacio Russo Tigre Actif 118 / 147 40% 1 15.09.2026 -
Agustín Venezia Iquique Actif 110 / 105 40% 1 15.09.2026 -
Jefry Zapata Once Caldas Actif 126 / 122 40% 1 15.09.2026 -
Arijanet Murić Sassuolo Actif 137 / 129 40% 1 14.09.2026 -
Jonas Urbig Bayern Munich Actif 134 / 125 40% 1 14.09.2026 -
Andrés Martín Racing Santander Actif 130 / 130 40% 1 10.09.2026 -
Cristian Barros Cerro Actif 102 / 116 40% 1 07.09.2026 -
Tomás Chancalay Minnesota United FC Actif 124 / 137 40% 1 06.09.2026 -
Philippe Keny Zurich Actif 116 / 107 40% 1 05.09.2026 -
Vitor Roque Palmeiras Actif 132 / 161 40% 1 04.09.2026 -
Lucas Boyé Alavés Actif 143 / 151 40% 1 03.09.2026 -
Gorka Guruzeta Athletic Bilbao Actif 146 / 139 40% 1 03.09.2026 -
Diego Rossi Monterrey Actif 126 / 132 40% 1 02.09.2026 -
Martin Terrier Bayer Leverkusen Actif 137 / 127 40% 1 02.09.2026 -
Lucas Ocampos West Ham United Actif 147 / 141 40% 1 31.08.2026 -
Uwe Franke Mouscron Actif 125 / 135 40% 1 21.08.2026 -
Petar Musa FC Dallas Actif 140 / 141 40% 1 21.08.2026 -
Christian Kofane Bayer Leverkusen Actif 132 / 129 40% 1 21.08.2026 -
Nikolaus Wurmbrand Brighton Actif 113 / 126 40% 1 19.08.2026 -
Jean-Mattéo Bahoya Eintracht Frankfurt Actif 136 / 136 40% 1 19.08.2026 -
Leo Castledine Middlesbrough Actif 125 / 140 40% 1 19.08.2026 -
Can Uzun Eintracht Frankfurt Actif 134 / 132 40% 1 01.08.2026 -